createdAt,value
2018-03-25T00:00:45.656Z,95220.60
2018-03-25T00:03:11.527Z,95225.05
2018-03-25T00:05:41.225Z,95221.70
2018-03-25T00:08:07.096Z,95227.13
2018-03-25T00:10:36.203Z,95223.58
2018-03-25T00:13:02.065Z,95230.72
2018-03-25T00:15:27.927Z,95229.84
2018-03-25T00:17:53.784Z,95223.19
2018-03-25T00:20:19.630Z,95231.83
2018-03-25T00:22:46.900Z,95227.81
2018-03-25T00:25:12.772Z,95234.75
2018-03-25T00:27:41.619Z,95230.33
2018-03-25T00:30:07.485Z,95235.30
2018-03-25T00:32:36.239Z,95235.60
2018-03-25T00:35:02.143Z,95233.26
2018-03-25T00:37:30.933Z,95232.25
2018-03-25T00:39:56.826Z,95232.80
2018-03-25T00:42:25.525Z,95231.11
2018-03-25T00:44:53.121Z,95224.73
2018-03-25T00:47:20.790Z,95224.81
2018-03-25T00:49:46.676Z,95223.20
2018-03-25T00:52:12.569Z,95229.09
2018-03-25T00:54:38.538Z,95230.17
2018-03-25T00:57:04.398Z,95232.53
2018-03-25T00:59:33.365Z,95231.33
2018-03-25T01:01:59.236Z,95241.20
2018-03-25T01:06:53.224Z,95235.85
2018-03-25T01:09:22.340Z,95235.61
2018-03-25T01:11:48.641Z,95241.17
2018-03-25T01:14:16.555Z,95233.02
2018-03-25T01:16:42.474Z,95237.22
2018-03-25T01:19:12.219Z,95241.31
2018-03-25T01:21:38.123Z,95239.16
2018-03-25T01:24:07.510Z,95240.87
2018-03-25T01:26:33.444Z,95249.08
2018-03-25T01:28:59.322Z,95245.80
2018-03-25T01:31:25.221Z,95245.82
2018-03-25T01:33:51.082Z,95243.54
2018-03-25T01:36:17.633Z,95241.70
2018-03-25T01:38:43.528Z,95247.39
2018-03-25T01:41:13.708Z,95243.83
2018-03-25T01:43:39.594Z,95244.81
2018-03-25T01:46:07.533Z,95244.84
2018-03-25T01:48:33.446Z,95240.27
2018-03-25T01:51:02.935Z,95241.12
2018-03-25T01:53:28.793Z,95241.24
2018-03-25T01:55:56.327Z,95243.19
2018-03-25T01:58:22.187Z,95246.25
2018-03-25T02:00:51.234Z,95237.33
2018-03-25T02:03:17.561Z,95239.38
2018-03-25T02:05:43.457Z,95245.36
2018-03-25T02:08:09.406Z,95249.67
2018-03-25T02:10:35.301Z,95245.73
2018-03-25T02:13:04.423Z,95246.84
2018-03-25T02:15:30.332Z,95239.95
2018-03-25T02:17:57.765Z,95246.94
2018-03-25T02:20:23.741Z,95234.38
2018-03-25T02:22:53.311Z,95212.28
2018-03-25T02:25:19.225Z,95235.70
2018-03-25T02:27:48.910Z,95233.70
2018-03-25T02:30:14.768Z,95240.27
2018-03-25T02:32:42.627Z,95240.22
2018-03-25T02:35:08.504Z,95235.55
2018-03-25T02:37:38.034Z,95239.30
2018-03-25T02:40:03.926Z,95239.44
2018-03-25T02:42:29.845Z,95244.77
2018-03-25T02:44:55.750Z,95251.77
2018-03-25T02:47:21.621Z,95243.02
2018-03-25T02:49:48.068Z,95248.83
2018-03-25T02:52:13.915Z,95242.63
2018-03-25T02:54:42.532Z,95245.82
2018-03-25T02:57:08.441Z,95240.80
2018-03-25T03:02:05.362Z,95247.25
2018-03-25T03:04:33.086Z,95250.51
2018-03-25T03:06:59.023Z,95252.58
2018-03-25T03:09:27.283Z,95251.98
2018-03-25T03:11:53.168Z,95252.84
2018-03-25T03:14:22.855Z,95248.08
2018-03-25T03:16:48.761Z,95247.09
2018-03-25T03:19:14.646Z,95250.03
2018-03-25T03:21:40.537Z,95249.44
2018-03-25T03:24:08.259Z,95234.82
2018-03-25T03:26:34.136Z,95258.05
2018-03-25T03:28:59.993Z,95253.76
2018-03-25T03:31:29.806Z,95259.00
2018-03-25T03:33:56.248Z,95257.67
2018-03-25T03:36:22.723Z,95259.57
2018-03-25T03:38:48.620Z,95266.23
2018-03-25T03:41:17.322Z,95263.10
2018-03-25T03:43:43.197Z,95262.73
2018-03-25T03:48:40.094Z,95262.48
2018-03-25T03:51:07.461Z,95264.69
2018-03-25T03:53:33.346Z,95265.23
2018-03-25T03:55:59.258Z,95256.81
2018-03-25T03:58:25.169Z,95264.56
2018-03-25T04:00:51.092Z,95265.73
2018-03-25T04:03:20.532Z,95271.18
2018-03-25T04:05:46.430Z,95272.08
2018-03-25T04:08:14.141Z,95271.05
2018-03-25T04:10:40.040Z,95277.21
2018-03-25T04:13:08.932Z,95283.63
2018-03-25T04:15:34.811Z,95278.91
2018-03-25T04:18:04.457Z,95281.97
2018-03-25T04:20:30.345Z,95285.27
2018-03-25T04:22:57.638Z,95287.33
2018-03-25T04:25:23.546Z,95293.75
2018-03-25T04:27:52.286Z,95299.81
2018-03-25T04:30:18.784Z,95300.31
2018-03-25T04:32:44.780Z,95298.04
2018-03-25T04:35:10.770Z,95299.70
2018-03-25T04:37:36.668Z,95297.39
2018-03-25T04:40:05.918Z,95300.18
2018-03-25T04:42:31.803Z,95302.34
2018-03-25T04:44:59.407Z,95297.03
2018-03-25T04:47:25.328Z,95291.67
2018-03-25T04:49:54.347Z,95305.73
2018-03-25T04:52:20.638Z,95300.12
2018-03-25T04:54:49.808Z,95303.27
2018-03-25T04:57:15.672Z,95303.34
2018-03-25T04:59:43.035Z,95305.56
2018-03-25T05:02:08.915Z,95303.72
2018-03-25T05:04:37.735Z,95303.23
2018-03-25T05:07:03.610Z,95306.07
2018-03-25T05:09:29.445Z,95303.25
2018-03-25T05:11:55.333Z,95311.44
2018-03-25T05:14:21.199Z,95315.92
2018-03-25T05:16:51.049Z,95308.81
2018-03-25T05:19:16.993Z,95314.52
2018-03-25T05:21:44.304Z,95315.06
2018-03-25T05:24:10.136Z,95315.97
2018-03-25T05:26:39.398Z,95320.80
2018-03-25T05:29:05.258Z,95319.33
2018-03-25T05:31:33.471Z,95324.38
2018-03-25T05:33:59.640Z,95328.00
2018-03-25T05:36:29.062Z,95324.22
2018-03-25T05:38:54.913Z,95328.13
2018-03-25T05:41:23.893Z,95332.64
2018-03-25T05:43:49.743Z,95330.68
2018-03-25T05:46:15.671Z,95330.65
2018-03-25T05:48:41.546Z,95333.56
2018-03-25T05:51:07.389Z,95334.45
2018-03-25T05:53:34.749Z,95343.99
2018-03-25T05:56:00.727Z,95347.00
2018-03-25T05:58:30.394Z,95347.05
2018-03-25T06:00:56.280Z,95349.04
2018-03-25T06:03:24.468Z,95349.13
2018-03-25T06:05:50.350Z,95350.07
2018-03-25T06:08:18.772Z,95350.52
2018-03-25T06:10:44.733Z,95354.91
2018-03-25T06:13:13.591Z,95362.75
2018-03-25T06:15:39.484Z,95364.80
2018-03-25T06:18:09.076Z,95369.61
2018-03-25T06:20:34.940Z,95372.27
2018-03-25T06:23:00.795Z,95374.36
2018-03-25T06:25:32.676Z,95378.95
2018-03-25T06:28:00.644Z,95389.34
2018-03-25T06:30:26.551Z,95372.91
2018-03-25T06:32:53.612Z,95385.72
2018-03-25T06:35:19.580Z,95385.62
2018-03-25T06:37:51.247Z,95398.65
2018-03-25T06:40:17.484Z,95398.49
2018-03-25T06:42:43.376Z,95395.62
2018-03-25T06:45:09.623Z,95394.81
2018-03-25T06:47:37.642Z,95394.97
2018-03-25T06:50:03.891Z,95402.22
2018-03-25T06:52:29.711Z,95407.78
2018-03-25T06:54:55.565Z,95407.38
2018-03-25T06:57:21.402Z,95407.25
2018-03-25T06:59:47.251Z,95404.40
2018-03-25T07:02:13.105Z,95408.33
2018-03-25T07:04:39.003Z,95410.11
2018-03-25T07:07:05.336Z,95416.55
2018-03-25T07:09:31.195Z,95417.24
2018-03-25T07:11:59.965Z,95416.38
2018-03-25T07:14:25.870Z,95418.31
2018-03-25T07:16:54.802Z,95424.70
2018-03-25T07:19:20.685Z,95423.02
2018-03-25T07:21:50.506Z,95423.03
2018-03-25T07:24:16.404Z,95423.58
2018-03-25T07:26:47.581Z,95421.69
2018-03-25T07:29:13.436Z,95426.81
2018-03-25T07:31:39.414Z,95429.53
2018-03-25T07:34:06.745Z,95427.52
2018-03-25T07:36:32.680Z,95433.30
2018-03-25T07:38:58.562Z,95428.19
2018-03-25T07:41:24.431Z,95437.05
2018-03-25T07:43:50.345Z,95440.49
2018-03-25T07:46:16.198Z,95441.75
2018-03-25T07:48:45.004Z,95440.59
2018-03-25T07:51:10.881Z,95442.11
2018-03-25T07:53:39.899Z,95437.78
2018-03-25T07:56:05.756Z,95450.70
2018-03-25T07:58:34.441Z,95446.55
2018-03-25T08:01:00.435Z,95450.38
2018-03-25T08:03:29.136Z,95451.45
2018-03-25T08:05:54.973Z,95457.05
2018-03-25T08:08:24.552Z,95454.45
2018-03-25T08:10:50.563Z,95454.69
2018-03-25T08:13:16.447Z,95452.16
2018-03-25T08:15:42.317Z,95453.56
2018-03-25T08:18:08.155Z,95452.17
2018-03-25T08:20:35.861Z,95457.81
2018-03-25T08:23:01.718Z,95455.52
2018-03-25T08:25:30.551Z,95462.42
2018-03-25T08:27:56.451Z,95456.00
2018-03-25T08:30:25.899Z,95461.44
2018-03-25T08:32:51.913Z,95460.98
2018-03-25T08:35:20.167Z,95466.33
2018-03-25T08:37:46.199Z,95463.88
2018-03-25T08:40:16.073Z,95466.50
2018-03-25T08:42:42.038Z,95464.02
2018-03-25T08:45:09.386Z,95475.88
2018-03-25T08:47:35.258Z,95464.16
2018-03-25T08:50:01.161Z,95470.70
2018-03-25T08:52:27.033Z,95471.11
2018-03-25T08:54:52.958Z,95475.34
2018-03-25T08:57:20.993Z,95475.59
2018-03-25T08:59:47.545Z,95475.04
2018-03-25T09:02:16.010Z,95479.33
2018-03-25T09:04:41.837Z,95472.08
2018-03-25T09:07:11.641Z,95474.17
2018-03-25T09:09:37.516Z,95466.63
2018-03-25T09:12:07.205Z,95472.87
2018-03-25T09:14:33.083Z,95473.59
2018-03-25T09:17:00.046Z,95475.85
2018-03-25T09:19:25.894Z,95476.64
2018-03-25T09:21:54.605Z,95470.09
2018-03-25T09:24:20.466Z,95472.31
2018-03-25T09:26:46.521Z,95471.34
2018-03-25T09:29:12.380Z,95475.84
2018-03-25T09:31:38.745Z,95472.87
2018-03-25T09:34:07.981Z,95477.39
2018-03-25T09:36:33.831Z,95478.64
2018-03-25T09:39:01.345Z,95482.55
2018-03-25T09:41:27.177Z,95483.18
2018-03-25T09:43:56.867Z,95457.80
2018-03-25T09:46:22.752Z,95489.88
2018-03-25T09:48:52.485Z,95486.11
2018-03-25T09:51:18.330Z,95488.30
2018-03-25T09:53:46.085Z,95494.45
2018-03-25T09:56:11.998Z,95495.19
2018-03-25T09:58:41.516Z,95496.99
2018-03-25T10:01:13.617Z,95493.25
2018-03-25T10:03:46.782Z,95492.03
2018-03-25T10:06:12.626Z,95487.95
2018-03-25T10:08:38.536Z,95488.03
2018-03-25T10:11:04.450Z,95494.78
2018-03-25T10:13:31.038Z,95495.34
2018-03-25T10:15:56.917Z,95489.73
2018-03-25T10:18:22.793Z,95498.20
2018-03-25T10:20:48.657Z,95492.91
2018-03-25T10:23:14.495Z,95496.13
2018-03-25T10:25:40.376Z,95486.63
2018-03-25T10:28:06.212Z,95493.80
2018-03-25T10:30:32.095Z,95490.88
2018-03-25T10:32:57.936Z,95497.62
2018-03-25T10:35:25.216Z,95488.02
2018-03-25T10:37:51.133Z,95487.73
2018-03-25T10:40:17.085Z,95498.96
2018-03-25T10:42:42.958Z,95495.22
2018-03-25T10:45:08.825Z,95489.66
2018-03-25T10:47:38.786Z,95491.73
2018-03-25T10:50:04.651Z,95487.17
2018-03-25T10:52:32.410Z,95490.72
2018-03-25T10:54:58.274Z,95485.91
2018-03-25T10:57:28.106Z,95486.94
2018-03-25T10:59:53.977Z,95482.45
2018-03-25T11:02:21.520Z,95494.92
2018-03-25T11:04:47.433Z,95495.32
2018-03-25T11:07:16.088Z,95497.28
2018-03-25T11:09:41.974Z,95498.58
2018-03-25T11:12:11.693Z,95494.66
2018-03-25T11:14:38.856Z,95490.13
2018-03-25T11:17:04.762Z,95493.78
2018-03-25T11:19:30.647Z,95486.63
2018-03-25T11:21:56.547Z,95492.61
2018-03-25T11:24:22.467Z,95498.28
2018-03-25T11:26:48.347Z,95498.55
2018-03-25T11:29:17.292Z,95489.53
2018-03-25T11:31:43.171Z,95491.66
2018-03-25T11:34:12.585Z,95491.15
2018-03-25T11:36:38.511Z,95494.54
2018-03-25T11:39:06.574Z,95492.08
2018-03-25T11:41:32.471Z,95490.86
2018-03-25T11:44:02.234Z,95492.10
2018-03-25T11:46:28.132Z,95495.75
2018-03-25T11:48:56.306Z,95500.89
2018-03-25T11:51:22.227Z,95497.64
2018-03-25T11:53:48.121Z,95495.48
2018-03-25T11:56:14.040Z,95492.10
2018-03-25T11:58:39.947Z,95494.53
2018-03-25T12:01:07.825Z,95496.48
2018-03-25T12:03:33.731Z,95503.63
2018-03-25T12:06:03.214Z,95500.05
2018-03-25T12:08:29.073Z,95500.16
2018-03-25T12:10:58.761Z,95504.03
2018-03-25T12:13:24.662Z,95504.86
2018-03-25T12:15:52.234Z,95508.28
2018-03-25T12:18:18.154Z,95505.05
2018-03-25T12:20:47.898Z,95512.70
2018-03-25T12:23:13.786Z,95506.08
2018-03-25T12:25:43.032Z,95507.16
2018-03-25T12:28:08.929Z,95508.44
2018-03-25T12:30:34.805Z,95511.20
2018-03-25T12:33:00.700Z,95504.50
2018-03-25T12:35:26.626Z,95500.45
2018-03-25T12:37:52.708Z,95495.53
2018-03-25T12:40:18.609Z,95496.98
2018-03-25T12:42:47.439Z,95501.72
2018-03-25T12:45:13.572Z,95499.64
2018-03-25T12:47:45.776Z,95498.92
2018-03-25T12:50:11.724Z,95503.79
2018-03-25T12:52:37.603Z,95503.11
2018-03-25T12:55:03.560Z,95500.11
2018-03-25T12:57:32.441Z,95495.11
2018-03-25T12:59:58.353Z,95496.16
2018-03-25T13:02:28.027Z,95500.16
2018-03-25T13:04:53.934Z,95495.17
2018-03-25T13:07:19.862Z,95496.84
2018-03-25T13:09:45.784Z,95495.38
2018-03-25T13:12:11.680Z,95490.02
2018-03-25T13:14:39.212Z,95492.73
2018-03-25T13:17:05.138Z,95489.39
2018-03-25T13:19:34.672Z,95496.31
2018-03-25T13:22:00.562Z,95498.37
2018-03-25T13:24:27.577Z,95489.31
2018-03-25T13:26:53.493Z,95492.07
2018-03-25T13:29:22.248Z,95490.98
2018-03-25T13:31:48.377Z,95487.42
2018-03-25T13:34:17.422Z,95437.28
2018-03-25T13:36:43.334Z,95492.91
2018-03-25T13:39:12.578Z,95485.39
2018-03-25T13:41:38.505Z,95485.80
2018-03-25T13:44:04.397Z,95490.15
2018-03-25T13:46:30.324Z,95488.06
2018-03-25T13:48:56.217Z,95493.77
2018-03-25T13:51:23.382Z,95493.70
2018-03-25T13:53:49.260Z,95487.70
2018-03-25T13:56:18.006Z,95488.87
2018-03-25T13:58:43.964Z,95493.18
2018-03-25T14:01:13.471Z,95491.23
2018-03-25T14:03:39.324Z,95490.44
2018-03-25T14:06:09.120Z,95485.85
2018-03-25T14:08:35.029Z,95485.72
2018-03-25T14:11:02.378Z,95480.82
2018-03-25T14:13:28.304Z,95481.97
2018-03-25T14:15:57.638Z,95484.08
2018-03-25T14:18:23.508Z,95477.28
2018-03-25T14:20:49.382Z,95482.73
2018-03-25T14:23:15.273Z,95479.26
2018-03-25T14:25:41.141Z,95484.34
2018-03-25T14:28:10.380Z,95479.70
2018-03-25T14:30:36.303Z,95484.96
2018-03-25T14:33:03.944Z,95480.09
2018-03-25T14:35:29.829Z,95480.64
2018-03-25T14:37:59.072Z,95480.05
2018-03-25T14:40:25.017Z,95484.49
2018-03-25T14:42:52.848Z,95481.98
2018-03-25T14:45:18.783Z,95481.62
2018-03-25T14:47:47.528Z,95483.23
2018-03-25T14:50:13.701Z,95483.11
2018-03-25T14:52:43.242Z,95487.09
2018-03-25T14:55:09.110Z,95485.56
2018-03-25T14:57:34.994Z,95492.56
2018-03-25T15:00:00.912Z,95490.53
2018-03-25T15:02:26.815Z,95490.08
2018-03-25T15:04:54.017Z,95496.37
2018-03-25T15:07:19.933Z,95497.88
2018-03-25T15:09:49.399Z,95496.41
2018-03-25T15:12:15.342Z,95494.56
2018-03-25T15:14:45.210Z,95499.87
2018-03-25T15:17:11.090Z,95501.98
2018-03-25T15:19:38.350Z,95498.30
2018-03-25T15:22:04.230Z,95501.61
2018-03-25T15:24:33.533Z,95510.58
2018-03-25T15:26:59.452Z,95511.91
2018-03-25T15:29:28.670Z,95507.07
2018-03-25T15:31:54.546Z,95511.25
2018-03-25T15:34:20.469Z,95516.67
2018-03-25T15:36:46.368Z,95518.56
2018-03-25T15:39:12.255Z,95522.62
2018-03-25T15:41:39.531Z,95528.86
2018-03-25T15:44:05.448Z,95526.24
2018-03-25T15:46:34.909Z,95527.97
2018-03-25T15:49:00.787Z,95531.74
2018-03-25T15:51:29.103Z,95535.99
2018-03-25T15:53:54.980Z,95541.32
2018-03-25T15:56:24.326Z,95537.77
2018-03-25T15:58:50.180Z,95539.16
2018-03-25T16:01:19.041Z,95532.91
2018-03-25T16:03:44.928Z,95539.43
2018-03-25T16:06:14.425Z,95537.92
2018-03-25T16:08:40.282Z,95538.84
2018-03-25T16:11:06.127Z,95541.91
2018-03-25T16:13:31.996Z,95543.71
2018-03-25T16:15:57.875Z,95541.98
2018-03-25T16:18:24.784Z,95549.86
2018-03-25T16:20:50.642Z,95545.83
2018-03-25T16:23:19.754Z,95547.06
2018-03-25T16:25:45.637Z,95555.08
2018-03-25T16:28:14.742Z,95551.86
2018-03-25T16:30:40.608Z,95555.09
2018-03-25T16:33:09.897Z,95556.02
2018-03-25T16:35:35.753Z,95554.58
2018-03-25T16:38:05.043Z,95557.94
2018-03-25T16:40:30.910Z,95561.80
2018-03-25T16:42:58.606Z,95557.69
2018-03-25T16:45:24.504Z,95561.41
2018-03-25T16:47:50.384Z,95571.09
2018-03-25T16:50:16.235Z,95564.93
2018-03-25T16:52:42.140Z,95571.20
2018-03-25T16:55:11.465Z,95572.03
2018-03-25T16:57:37.345Z,95580.96
2018-03-25T17:00:04.776Z,95582.44
2018-03-25T17:02:30.673Z,95582.37
2018-03-25T17:05:00.482Z,95586.34
2018-03-25T17:07:26.334Z,95585.22
2018-03-25T17:09:54.010Z,95585.97
2018-03-25T17:12:19.865Z,95589.20
2018-03-25T17:14:52.631Z,95594.46
2018-03-25T17:17:18.528Z,95598.30
2018-03-25T17:19:44.386Z,95598.19
2018-03-25T17:22:10.274Z,95611.71
2018-03-25T17:24:36.182Z,95614.03
2018-03-25T17:27:02.092Z,95618.97
2018-03-25T17:29:27.990Z,95617.40
2018-03-25T17:31:55.792Z,95627.25
2018-03-25T17:34:21.668Z,95624.48
2018-03-25T17:36:49.752Z,95631.30
2018-03-25T17:39:15.633Z,95630.14
2018-03-25T17:41:44.270Z,95632.52
2018-03-25T17:44:10.163Z,95640.39
2018-03-25T17:49:06.969Z,95642.63
2018-03-25T17:51:34.080Z,95641.91
2018-03-25T17:53:59.964Z,95650.13
2018-03-25T17:56:28.878Z,95651.83
2018-03-25T17:58:54.749Z,95654.52
2018-03-25T18:01:20.605Z,95660.89
2018-03-25T18:03:46.490Z,95653.29
2018-03-25T18:06:12.337Z,95660.06
2018-03-25T18:08:42.220Z,95660.20
2018-03-25T18:11:08.136Z,95660.87
2018-03-25T18:13:35.664Z,95663.66
2018-03-25T18:16:01.565Z,95664.92
2018-03-25T18:18:30.065Z,95669.90
2018-03-25T18:20:56.308Z,95672.55
2018-03-25T18:23:25.644Z,95676.86
2018-03-25T18:25:51.635Z,95682.75
2018-03-25T18:28:20.813Z,95680.25
2018-03-25T18:30:46.700Z,95681.27
2018-03-25T18:33:14.030Z,95682.67
2018-03-25T18:35:39.916Z,95676.67
2018-03-25T18:38:05.857Z,95688.91
2018-03-25T18:40:31.784Z,95695.98
2018-03-25T18:42:57.705Z,95699.13
2018-03-25T18:45:27.232Z,95695.59
2018-03-25T18:47:53.130Z,95705.79
2018-03-25T18:50:20.552Z,95705.38
2018-03-25T18:52:46.470Z,95706.25
2018-03-25T18:55:15.843Z,95706.98
2018-03-25T18:57:41.779Z,95713.90
2018-03-25T19:00:11.377Z,95717.52
2018-03-25T19:02:37.327Z,95715.65
2018-03-25T19:05:04.662Z,95727.75
2018-03-25T19:07:30.566Z,95725.78
2018-03-25T19:10:00.241Z,95734.58
2018-03-25T19:12:26.161Z,95733.70
2018-03-25T19:17:23.615Z,95732.12
2018-03-25T19:19:49.485Z,95732.75
2018-03-25T19:22:15.364Z,95734.51
2018-03-25T19:24:41.279Z,95735.58
2018-03-25T19:27:07.178Z,95736.59
2018-03-25T19:29:33.087Z,95739.13
2018-03-25T19:32:00.618Z,95732.67
2018-03-25T19:34:26.478Z,95745.81
2018-03-25T19:36:56.052Z,95743.16
2018-03-25T19:39:22.374Z,95746.85
2018-03-25T19:41:50.054Z,95751.84
2018-03-25T19:44:15.990Z,95754.31
2018-03-25T19:46:45.178Z,95756.65
2018-03-25T19:49:11.066Z,95758.50
2018-03-25T19:51:37.022Z,95761.84
2018-03-25T19:54:02.943Z,95763.37
2018-03-25T19:56:28.845Z,95762.36
2018-03-25T19:58:56.197Z,95764.59
2018-03-25T20:01:22.088Z,95772.17
2018-03-25T20:03:50.989Z,95766.28
2018-03-25T20:06:16.869Z,95770.12
2018-03-25T20:08:45.506Z,95771.28
2018-03-25T20:11:11.404Z,95775.25
2018-03-25T20:13:40.338Z,95779.72
2018-03-25T20:16:06.218Z,95784.52
2018-03-25T20:18:35.140Z,95788.47
2018-03-25T20:21:00.997Z,95787.72
2018-03-25T20:23:29.736Z,95789.66
2018-03-25T20:25:55.650Z,95792.72
2018-03-25T20:28:21.538Z,95797.45
2018-03-25T20:30:47.699Z,95799.74
2018-03-25T20:33:13.563Z,95805.80
2018-03-25T20:35:41.628Z,95806.17
2018-03-25T20:38:07.530Z,95810.67
2018-03-25T20:40:37.205Z,95811.55
2018-03-25T20:43:03.103Z,95809.94
2018-03-25T20:45:31.317Z,95803.31
2018-03-25T20:47:57.260Z,95804.13
2018-03-25T20:50:26.909Z,95809.20
2018-03-25T20:52:52.789Z,95813.45
2018-03-25T20:55:20.487Z,95809.19
2018-03-25T20:57:46.379Z,95809.19
2018-03-25T21:00:15.188Z,95807.55
2018-03-25T21:02:41.121Z,95813.03
2018-03-25T21:05:07.023Z,95814.23
2018-03-25T21:07:32.921Z,95815.05
2018-03-25T21:09:58.839Z,95810.83
2018-03-25T21:12:28.556Z,95819.88
2018-03-25T21:14:56.401Z,95825.36
2018-03-25T21:17:22.304Z,95826.08
2018-03-25T21:19:48.201Z,95823.58
2018-03-25T21:22:17.203Z,95823.96
2018-03-25T21:24:43.085Z,95832.42
2018-03-25T21:27:12.714Z,95829.06
2018-03-25T21:29:38.595Z,95825.66
2018-03-25T21:32:05.574Z,95826.21
2018-03-25T21:34:31.487Z,95825.70
2018-03-25T21:37:01.092Z,95826.59
2018-03-25T21:39:26.947Z,95827.32
2018-03-25T21:41:52.850Z,95832.22
2018-03-25T21:44:18.793Z,95824.64
2018-03-25T21:46:44.686Z,95823.38
2018-03-25T21:49:13.921Z,95829.13
2018-03-25T21:51:39.811Z,95833.16
2018-03-25T21:54:07.097Z,95834.73
2018-03-25T21:56:33.014Z,95836.02
2018-03-25T21:59:01.790Z,95837.69
2018-03-25T22:01:27.712Z,95842.77
2018-03-25T22:03:57.032Z,95842.63
2018-03-25T22:06:22.921Z,95842.29
2018-03-25T22:08:51.008Z,95838.77
2018-03-25T22:11:16.878Z,95842.79
2018-03-25T22:13:46.292Z,95845.05
2018-03-25T22:16:12.169Z,95844.11
2018-03-25T22:18:50.343Z,95848.48
2018-03-25T22:21:16.214Z,95842.64
2018-03-25T22:23:42.111Z,95847.30
2018-03-25T22:26:08.007Z,95856.05
2018-03-25T22:28:33.908Z,95856.22
2018-03-25T22:30:59.785Z,95856.75
2018-03-25T22:33:25.662Z,95855.44
2018-03-25T22:35:51.526Z,95858.33
2018-03-25T22:38:17.413Z,95860.63
2018-03-25T22:40:43.331Z,95858.48
2018-03-25T22:43:09.235Z,95855.02
2018-03-25T22:45:36.853Z,95863.35
2018-03-25T22:48:02.777Z,95859.70
2018-03-25T22:50:32.216Z,95867.12
2018-03-25T22:52:58.097Z,95871.19
2018-03-25T22:55:23.994Z,95861.20
2018-03-25T22:57:49.877Z,95866.57
2018-03-25T23:00:15.761Z,95869.66
2018-03-25T23:02:43.277Z,95867.08
2018-03-25T23:05:09.201Z,95867.25
2018-03-25T23:07:38.408Z,95870.55
2018-03-25T23:10:04.362Z,95870.55
2018-03-25T23:12:33.737Z,95873.16
2018-03-25T23:14:59.588Z,95874.46
2018-03-25T23:17:26.930Z,95878.04
2018-03-25T23:19:52.828Z,95877.30
2018-03-25T23:22:21.612Z,95877.64
2018-03-25T23:24:47.504Z,95871.61
2018-03-25T23:27:16.413Z,95872.19
2018-03-25T23:29:42.282Z,95867.26
2018-03-25T23:32:08.167Z,95872.89
2018-03-25T23:34:35.131Z,95870.21
2018-03-25T23:37:01.076Z,95870.48
2018-03-25T23:39:27.894Z,95865.59
2018-03-25T23:41:53.770Z,95865.57
2018-03-25T23:44:22.850Z,95858.05
2018-03-25T23:46:49.069Z,95860.23
2018-03-25T23:49:18.765Z,95868.78
2018-03-25T23:51:44.647Z,95873.23
2018-03-25T23:54:13.926Z,95875.80
2018-03-25T23:56:39.845Z,95877.80
2018-03-25T23:59:07.596Z,95874.11
